Time;durP1;ratioP1;P1;durP2;ratioP2;P2;SDS_P1;SDS_P2;PMS_P1;PMS_P2;Temp;Humidity;BMP_temperature;BMP_pressure;BME280_temperature;BME280_humidity;BME280_pressure;Samples;Min_cycle;Max_cycle;Signal;HPM_P1;HPM_P2
2023/10/20 00:01:25;;;;;;;5.72;2.67;;;;;;;18.35;100.00;96714.22;5069439;28;20024;-76
2023/10/20 00:03:56;;;;;;;4.55;2.65;;;;;;;18.34;100.00;96715.22;5069484;28;20024;-76
2023/10/20 00:06:44;;;;;;;;;;;;;;;;;;;;;
2023/10/20 00:09:19;;;;;;;8.85;2.85;;;;;;;18.31;100.00;96717.41;5069646;28;20028;-76
2023/10/20 00:12:04;;;;;;;8.27;2.92;;;;;;;18.35;100.00;96714.22;5069306;28;20086;-75
2023/10/20 00:14:33;;;;;;;4.35;2.40;;;;;;;18.38;100.00;96702.22;5069398;28;20035;-76
2023/10/20 00:16:58;;;;;;;6.22;2.72;;;;;;;18.40;100.00;96709.16;5085917;28;20036;-76
2023/10/20 00:19:24;;;;;;;4.60;2.38;;;;;;;18.39;100.00;96704.75;5069159;28;20044;-76
2023/10/20 00:21:59;;;;;;;4.18;2.65;;;;;;;18.44;100.00;96706.97;5070639;28;20029;-77
2023/10/20 00:24:29;;;;;;;5.13;2.47;;;;;;;18.43;100.00;96699.84;5068583;28;20036;-77
2023/10/20 00:27:04;;;;;;;6.07;2.70;;;;;;;18.58;100.00;96700.13;5069503;28;20071;-77
2023/10/20 00:29:32;;;;;;;6.70;3.05;;;;;;;18.63;100.00;96698.59;5065858;28;20027;-77
2023/10/20 00:32:00;;;;;;;11.30;2.60;;;;;;;18.81;100.00;96699.31;5069225;28;20503;-77
2023/10/20 00:34:25;;;;;;;8.63;2.88;;;;;;;18.80;100.00;96692.19;5068791;28;20507;-77
2023/10/20 00:36:55;;;;;;;6.15;2.95;;;;;;;18.80;100.00;96696.75;5069080;28;20064;-77
2023/10/20 00:39:24;;;;;;;4.97;2.60;;;;;;;18.75;100.00;96694.56;5069280;28;20031;-75
2023/10/20 00:42:12;;;;;;;6.35;2.75;;;;;;;18.71;100.00;96697.75;5069093;28;20186;-75
2023/10/20 00:44:38;;;;;;;6.55;2.63;;;;;;;18.58;100.00;96698.22;5070229;28;20027;-77
2023/10/20 00:47:07;;;;;;;8.50;2.80;;;;;;;18.56;100.00;96689.44;5067888;28;20154;-75
2023/10/20 00:49:36;;;;;;;8.27;2.92;;;;;;;18.43;100.00;96683.59;5063609;28;20054;-77
2023/10/20 00:52:09;;;;;;;4.35;2.53;;;;;;;18.33;100.00;96682.91;5068884;28;20077;-76
2023/10/20 00:54:44;;;;;;;6.32;2.70;;;;;;;18.22;100.00;96685.91;5069063;28;20409;-77
2023/10/20 00:57:16;;;;;;;8.15;2.78;;;;;;;18.20;100.00;96682.50;5069453;28;20048;-76
2023/10/20 00:59:48;;;;;;;8.57;3.40;;;;;;;18.21;100.00;96668.81;5069045;28;20024;-76
2023/10/20 01:02:20;;;;;;;7.45;2.70;;;;;;;18.30;100.00;96673.22;5052579;28;20024;-76
2023/10/20 01:04:48;;;;;;;10.05;2.60;;;;;;;18.26;100.00;96671.88;5069196;28;20560;-76
2023/10/20 01:07:16;;;;;;;6.85;2.90;;;;;;;18.28;100.00;96666.28;5068589;28;20024;-77
2023/10/20 01:09:45;;;;;;;6.70;3.03;;;;;;;18.18;100.00;96669.13;5069830;28;20047;-76
2023/10/20 01:12:11;;;;;;;12.65;2.95;;;;;;;18.23;100.00;96661.38;5068884;28;20037;-76
2023/10/20 01:14:37;;;;;;;10.13;2.90;;;;;;;18.39;100.00;96666.00;5068643;28;20040;-76
2023/10/20 01:17:05;;;;;;;6.18;2.83;;;;;;;18.38;100.00;96676.00;5068662;28;20036;-77
2023/10/20 01:19:40;;;;;;;6.57;2.95;;;;;;;18.32;100.00;96664.97;5069727;28;20049;-76
2023/10/20 01:22:11;;;;;;;7.47;2.80;;;;;;;18.23;100.00;96666.81;5068523;28;20032;-77
2023/10/20 01:24:39;;;;;;;8.48;3.17;;;;;;;18.19;100.00;96664.56;5068287;28;20118;-76
2023/10/20 01:27:22;;;;;;;5.00;2.58;;;;;;;18.02;100.00;96657.41;5068714;28;20092;-76
2023/10/20 01:30:05;;;;;;;13.98;2.70;;;;;;;17.95;100.00;96656.34;5068771;28;20028;-76
2023/10/20 01:32:41;;;;;;;5.15;2.45;;;;;;;18.05;100.00;96651.66;5068566;28;20480;-77
2023/10/20 01:35:10;;;;;;;9.13;2.53;;;;;;;18.12;100.00;96642.72;5068425;28;20137;-77
2023/10/20 01:37:40;;;;;;;5.03;2.38;;;;;;;18.29;100.00;96638.22;5068541;28;20091;-76
2023/10/20 01:40:09;;;;;;;11.40;2.65;;;;;;;18.55;100.00;96628.13;5068308;28;20454;-76
2023/10/20 01:42:35;;;;;;;11.88;3.22;;;;;;;18.79;100.00;96627.34;5051745;28;20024;-76
2023/10/20 01:45:17;;;;;;;7.20;2.53;;;;;;;19.20;96.96;96622.75;5069708;28;20039;-76
2023/10/20 01:47:48;;;;;;;6.90;2.53;;;;;;;19.36;95.53;96609.19;5068613;28;20029;-76
2023/10/20 01:50:25;;;;;;;7.07;2.58;;;;;;;19.48;93.95;96584.25;5069615;28;20492;-76
2023/10/20 01:52:54;;;;;;;10.90;2.75;;;;;;;19.53;93.79;96593.75;5067981;28;20024;-76
2023/10/20 01:55:22;;;;;;;3.80;2.25;;;;;;;19.66;91.63;96585.88;5069422;28;20035;-76
2023/10/20 01:57:55;;;;;;;5.65;2.50;;;;;;;19.64;92.27;96590.66;5068275;28;20056;-77
2023/10/20 02:00:26;;;;;;;5.60;2.20;;;;;;;19.61;92.19;96591.84;5070767;28;20472;-77
2023/10/20 02:03:10;;;;;;;18.33;2.83;;;;;;;19.53;92.61;96558.50;5071702;28;20090;-77
2023/10/20 02:05:36;;;;;;;8.38;2.72;;;;;;;19.59;91.72;96571.34;5071549;28;20028;-77
2023/10/20 02:08:17;;;;;;;10.05;2.67;;;;;;;19.64;90.99;96577.94;5071979;28;20488;-77
2023/10/20 02:11:15;;;;;;;6.00;2.40;;;;;;;19.76;89.68;96557.53;5071947;28;20436;-75
2023/10/20 02:13:49;;;;;;;10.65;3.42;;;;;;;19.81;88.42;96560.56;5082648;28;20039;-75
2023/10/20 02:16:17;;;;;;;6.95;2.20;;;;;;;19.90;87.14;96556.78;5071718;28;20023;-75
2023/10/20 02:19:05;;;;;;;7.03;2.35;;;;;;;19.99;85.40;96555.72;5071611;28;20025;-75
2023/10/20 02:21:30;;;;;;;7.60;2.15;;;;;;;19.98;86.50;96574.91;5072875;28;20033;-76
2023/10/20 02:23:58;;;;;;;13.45;2.40;;;;;;;19.88;86.75;96560.72;5088481;28;20475;-76
2023/10/20 02:26:27;;;;;;;11.23;2.67;;;;;;;19.74;88.33;96562.31;5071507;28;20125;-77
2023/10/20 02:28:57;;;;;;;6.93;2.47;;;;;;;19.59;89.69;96577.63;5070754;28;20093;-76
2023/10/20 02:31:25;;;;;;;7.75;2.70;;;;;;;19.58;89.46;96575.94;5071215;28;20039;-76
2023/10/20 02:34:05;;;;;;;6.43;2.53;;;;;;;19.65;88.86;96567.94;5071236;28;20040;-76
2023/10/20 02:36:42;;;;;;;7.57;2.22;;;;;;;19.60;88.88;96562.16;5071518;28;20052;-76
2023/10/20 02:39:17;;;;;;;6.95;2.65;;;;;;;19.69;87.74;96563.84;5070801;28;20051;-76
2023/10/20 02:41:47;;;;;;;6.72;2.55;;;;;;;19.83;86.11;96558.53;5071199;28;20052;-77
2023/10/20 02:44:27;;;;;;;8.05;2.80;;;;;;;19.87;85.98;96578.84;5071639;28;20090;-77
2023/10/20 02:47:03;;;;;;;8.50;2.40;;;;;;;19.89;85.13;96565.13;5071485;28;20024;-76
2023/10/20 02:49:41;;;;;;;;;;;;;;;;;;;;;
2023/10/20 02:52:13;;;;;;;8.50;2.80;;;;;;;19.98;84.31;96572.22;5071131;28;20036;-76
2023/10/20 02:54:38;;;;;;;4.35;2.75;;;;;;;19.89;85.19;96562.41;5071284;28;20381;-75
2023/10/20 02:57:13;;;;;;;7.88;2.53;;;;;;;20.08;82.80;96559.28;5072050;28;20030;-76
2023/10/20 02:59:41;;;;;;;9.15;2.75;;;;;;;20.09;82.87;96560.13;5070700;28;20101;-76
2023/10/20 03:02:09;;;;;;;7.90;2.60;;;;;;;20.00;83.49;96562.84;5065348;28;20123;-76
2023/10/20 03:04:35;;;;;;;10.32;2.70;;;;;;;20.01;82.69;96558.28;5071066;28;20028;-77
2023/10/20 03:07:06;;;;;;;5.70;2.50;;;;;;;20.09;81.43;96560.13;5087364;28;20036;-76
2023/10/20 03:09:36;;;;;;;7.95;3.30;;;;;;;20.09;81.51;96544.66;5070222;28;20068;-76
2023/10/20 03:12:03;;;;;;;13.75;2.95;;;;;;;20.14;81.34;96555.84;5070050;28;20068;-77
2023/10/20 03:14:48;;;;;;;8.82;2.38;;;;;;;20.08;81.96;96551.13;5070956;28;20025;-76
2023/10/20 03:17:22;;;;;;;6.03;2.33;;;;;;;20.16;80.52;96545.63;5063464;28;20028;-76
2023/10/20 03:19:55;;;;;;;4.50;2.45;;;;;;;20.15;80.60;96548.53;5070314;28;20120;-76
2023/10/20 03:22:39;;;;;;;10.48;2.42;;;;;;;20.25;79.59;96541.00;5071786;28;20111;-77
2023/10/20 03:25:08;;;;;;;7.22;2.72;;;;;;;20.31;78.92;96551.16;5053745;28;20043;-77
2023/10/20 03:27:37;;;;;;;5.28;2.72;;;;;;;20.43;77.62;96547.00;5070311;28;20116;-77
2023/10/20 03:30:23;;;;;;;8.68;2.60;;;;;;;20.42;77.95;96540.75;5071403;28;20506;-77
2023/10/20 03:32:51;;;;;;;12.60;2.70;;;;;;;20.44;78.15;96529.69;5072171;28;20166;-77
2023/10/20 03:35:35;;;;;;;;;;;;;;;;;;;;;
2023/10/20 03:38:05;;;;;;;11.35;2.00;;;;;;;20.29;78.77;96528.78;5068351;28;20026;-77
2023/10/20 03:40:36;;;;;;;7.35;2.30;;;;;;;20.35;78.70;96539.78;5069593;28;20028;-77
2023/10/20 03:43:16;;;;;;;5.38;2.40;;;;;;;20.33;78.84;96528.22;5070693;28;20025;-77
2023/10/20 03:48:55;;;;;;;6.07;2.42;;;;;;;20.24;79.78;96509.44;5070424;28;20102;-75
2023/10/20 03:51:21;;;;;;;10.02;2.95;;;;;;;20.22;79.84;96522.34;5045425;28;20025;-75
2023/10/20 03:53:56;;;;;;;11.57;2.80;;;;;;;20.11;80.44;96528.19;5069891;28;20033;-75
2023/10/20 03:56:27;;;;;;;7.88;2.70;;;;;;;20.21;77.86;96504.38;5063512;28;20078;-76
2023/10/20 03:59:00;;;;;;;7.22;2.83;;;;;;;20.35;77.79;96519.91;5069490;28;20028;-76
2023/10/20 04:01:27;;;;;;;18.45;2.40;;;;;;;20.32;77.57;96502.13;5069135;28;20021;-76
2023/10/20 04:03:55;;;;;;;8.82;2.40;;;;;;;20.43;75.90;96500.81;5069594;28;20047;-77
2023/10/20 04:06:23;;;;;;;5.50;2.40;;;;;;;20.48;74.69;96501.16;5069633;28;20021;-76
2023/10/20 04:08:51;;;;;;;7.97;2.60;;;;;;;20.43;75.28;96492.69;5069630;28;20445;-75
2023/10/20 04:11:34;;;;;;;7.50;2.38;;;;;;;20.45;75.26;96504.22;5052360;28;20557;-77
2023/10/20 04:14:06;;;;;;;6.43;2.40;;;;;;;20.45;74.97;96501.50;5070393;28;20097;-76
2023/10/20 04:16:43;;;;;;;10.00;2.38;;;;;;;20.48;73.63;96502.00;5070623;28;20025;-76
2023/10/20 04:19:25;;;;;;;8.63;2.72;;;;;;;20.58;72.02;96495.47;5085784;28;20056;-76
2023/10/20 04:21:50;;;;;;;5.80;2.28;;;;;;;20.58;70.84;96479.97;5068960;28;20156;-76
2023/10/20 04:24:20;;;;;;;44.50;3.88;;;;;;;20.58;70.91;96477.25;5070241;28;20504;-75
2023/10/20 04:26:50;;;;;;;11.77;2.90;;;;;;;20.75;68.91;96480.69;5052834;28;20039;-77
2023/10/20 04:54:37;;;;;;;11.18;2.55;;;;;;;20.47;71.40;96496.72;5069955;28;20043;-74
2023/10/20 04:59:55;;;;;;;17.38;4.65;;;;;;;20.32;74.26;96512.13;5069897;28;20377;-76
2023/10/20 05:02:34;;;;;;;12.80;4.15;;;;;;;20.21;76.25;96520.66;5068414;28;20103;-75
2023/10/20 05:05:17;;;;;;;6.38;2.28;;;;;;;20.10;73.99;96518.34;5068781;28;20142;-77
2023/10/20 05:07:50;;;;;;;23.27;4.22;;;;;;;20.06;77.38;96523.28;5085551;28;20028;-76
2023/10/20 05:10:15;;;;;;;14.30;3.03;;;;;;;20.03;76.06;96529.91;5068185;28;20028;-76
2023/10/20 05:12:41;;;;;;;7.10;3.05;;;;;;;20.11;76.20;96515.47;5069693;28;20066;-77
2023/10/20 05:15:13;;;;;;;12.13;3.50;;;;;;;20.22;74.69;96533.19;5068092;28;20114;-75
2023/10/20 05:17:46;;;;;;;;;;;;;;;20.49;70.26;96525.41;5062720;28;20157;-75
2023/10/20 05:20:28;;;;;;;17.60;2.72;;;;;;;20.84;66.87;96521.22;5051306;28;20285;-75
2023/10/20 05:23:01;;;;;;;11.45;2.67;;;;;;;21.06;65.31;96512.16;5083937;28;20032;-77
2023/10/20 05:25:28;;;;;;;11.13;3.03;;;;;;;21.25;64.12;96515.41;5069562;28;20554;-75
2023/10/20 05:27:59;;;;;;;5.75;2.30;;;;;;;21.50;62.00;96508.66;5069661;28;20025;-76
2023/10/20 05:30:30;;;;;;;9.55;2.40;;;;;;;21.76;60.51;96503.56;5068710;28;20029;-77
2023/10/20 05:33:03;;;;;;;11.98;2.70;;;;;;;22.35;58.23;96514.34;5069234;28;20113;-78
2023/10/20 05:35:31;;;;;;;12.65;2.38;;;;;;;22.98;54.95;96506.16;5072225;28;20029;-76
2023/10/20 05:38:14;;;;;;;6.05;2.50;;;;;;;23.45;53.40;96496.47;5072331;28;20040;-75
2023/10/20 05:40:58;;;;;;;11.50;2.42;;;;;;;24.19;50.80;96500.22;5074508;28;20040;-75
2023/10/20 05:43:27;;;;;;;13.82;2.75;;;;;;;24.87;49.04;96507.31;5055724;28;20032;-75
2023/10/20 05:45:52;;;;;;;5.15;2.67;;;;;;;25.35;47.60;96519.72;5072139;28;20063;-75
2023/10/20 05:48:23;;;;;;;10.80;2.60;;;;;;;25.81;46.43;96495.00;5071396;28;20093;-75
2023/10/20 05:51:05;;;;;;;14.82;2.85;;;;;;;26.19;46.32;96521.69;5073059;28;20507;-73
2023/10/20 05:53:34;;;;;;;10.32;2.95;;;;;;;26.61;45.43;96512.00;5071801;28;20028;-74
2023/10/20 05:56:04;;;;;;;11.57;3.13;;;;;;;26.70;45.55;96516.16;5072797;28;20055;-78
2023/10/20 05:58:34;;;;;;;15.73;3.85;;;;;;;27.18;44.45;96511.81;5072556;28;20058;-77
2023/10/20 06:01:19;;;;;;;19.42;3.25;;;;;;;27.75;43.23;96493.31;5071947;28;20032;-76
2023/10/20 06:03:57;;;;;;;;;;;;;;;;;;;;;
2023/10/20 06:06:25;;;;;;;4.95;2.05;;;;;;;27.93;40.39;96493.34;5072883;28;20019;-76
2023/10/20 06:08:53;;;;;;;6.53;2.47;;;;;;;28.28;39.80;96496.28;5072794;28;20161;-75
2023/10/20 06:11:24;;;;;;;13.98;2.50;;;;;;;28.83;38.78;96488.75;5072720;28;20128;-76
2023/10/20 06:13:54;;;;;;;12.10;2.73;;;;;;;28.90;38.17;96479.34;5071416;28;20048;-77
2023/10/20 06:16:40;;;;;;;12.05;3.03;;;;;;;28.53;38.49;96488.75;5088016;28;20274;-77
2023/10/20 06:19:28;;;;;;;9.73;2.40;;;;;;;28.09;39.68;96498.22;5071368;28;20120;-77
2023/10/20 06:21:55;;;;;;;11.55;2.70;;;;;;;28.22;40.81;96498.06;5069121;28;20411;-76
2023/10/20 06:24:23;;;;;;;12.82;3.05;;;;;;;28.23;39.21;96494.25;5071228;28;20097;-76
2023/10/20 06:26:49;;;;;;;7.68;2.33;;;;;;;28.06;39.00;96495.94;5071214;28;20032;-76
2023/10/20 06:29:38;;;;;;;14.98;3.33;;;;;;;28.23;38.74;96483.25;5071085;28;20062;-75
2023/10/20 06:32:31;;;;;;;5.15;2.28;;;;;;;27.91;39.67;96500.94;5072393;28;20166;-76
2023/10/20 06:35:00;;;;;;;2.92;2.25;;;;;;;27.86;39.22;96481.56;5071406;28;20093;-76
2023/10/20 06:37:42;;;;;;;6.53;2.15;;;;;;;28.08;39.50;96493.81;5072169;28;20036;-75
2023/10/20 06:40:17;;;;;;;14.30;2.10;;;;;;;27.98;39.76;96490.72;5072370;28;20054;-76
2023/10/20 06:42:45;;;;;;;8.23;2.33;;;;;;;28.29;38.85;96479.56;5072253;28;20020;-76
2023/10/20 06:45:29;;;;;;;10.57;2.70;;;;;;;28.14;38.51;96486.56;5070000;28;20082;-75
2023/10/20 06:47:57;;;;;;;7.00;2.55;;;;;;;28.11;39.41;96498.00;5073472;28;20033;-76
2023/10/20 06:50:28;;;;;;;7.25;2.42;;;;;;;28.78;38.31;96496.91;5071971;28;20028;-75
2023/10/20 06:52:58;;;;;;;9.53;3.30;;;;;;;29.14;37.31;96485.72;5070749;28;20056;-75
2023/10/20 06:55:24;;;;;;;9.80;2.10;;;;;;;28.79;37.59;96487.56;5071688;28;20025;-75
2023/10/20 06:57:53;;;;;;;8.32;2.28;;;;;;;28.96;37.59;96494.06;5087385;28;20557;-75
2023/10/20 07:00:23;;;;;;;7.32;2.08;;;;;;;28.75;37.36;96498.22;5071699;28;20032;-76
2023/10/20 07:05:47;;;;;;;5.88;2.20;;;;;;;28.80;37.67;96503.00;5070732;28;20404;-76
2023/10/20 07:08:17;;;;;;;9.18;2.30;;;;;;;28.91;37.31;96507.72;5071715;28;20071;-75
2023/10/20 07:10:45;;;;;;;5.97;2.85;;;;;;;28.44;38.03;96509.44;5070041;28;20034;-75
2023/10/20 07:13:14;;;;;;;10.68;2.95;;;;;;;28.43;37.68;96527.84;5071667;28;20078;-76
2023/10/20 07:15:56;;;;;;;9.15;1.98;;;;;;;29.46;36.39;96514.69;5071627;28;20032;-76
2023/10/20 07:18:27;;;;;;;5.82;2.10;;;;;;;29.88;35.74;96526.44;5071293;28;20035;-75
2023/10/20 07:21:21;;;;;;;6.78;2.08;;;;;;;30.50;34.74;96522.03;5070062;28;20164;-76
2023/10/20 07:23:54;;;;;;;9.25;2.50;;;;;;;29.35;35.71;96509.97;5071547;28;20024;-76
2023/10/20 07:26:23;;;;;;;11.00;2.63;;;;;;;28.41;37.61;96521.75;5069530;28;20021;-76
2023/10/20 07:28:54;;;;;;;8.43;2.15;;;;;;;28.30;37.95;96524.44;5070817;28;20119;-76
2023/10/20 07:31:37;;;;;;;8.05;2.20;;;;;;;28.70;37.36;96527.53;5070171;28;20036;-76
2023/10/20 07:34:09;;;;;;;11.15;2.10;;;;;;;29.21;36.82;96507.66;5071351;28;20031;-76
2023/10/20 07:36:37;;;;;;;12.23;2.60;;;;;;;28.58;37.40;96523.84;5069897;28;20017;-75
2023/10/20 07:39:08;;;;;;;9.00;2.63;;;;;;;29.41;36.02;96498.00;5071067;28;20029;-75
2023/10/20 07:42:02;;;;;;;9.23;2.73;;;;;;;29.79;35.99;96521.50;5069926;28;20065;-75
2023/10/20 07:44:30;;;;;;;14.80;2.78;;;;;;;29.79;35.49;96513.22;5067265;28;20028;-76
2023/10/20 07:47:06;;;;;;;5.97;2.80;;;;;;;29.29;35.85;96521.97;5070777;28;20507;-75
2023/10/20 07:49:33;;;;;;;11.88;3.03;;;;;;;29.15;35.97;96520.47;5069818;28;20107;-76
2023/10/20 07:52:00;;;;;;;9.73;2.60;;;;;;;28.89;36.27;96523.63;5070750;28;20026;-76
2023/10/20 07:54:29;;;;;;;7.68;2.50;;;;;;;29.00;36.27;96520.94;5069743;28;20447;-75
2023/10/20 07:56:56;;;;;;;13.38;2.85;;;;;;;29.03;36.09;96517.69;5069129;28;20047;-75
2023/10/20 07:59:21;;;;;;;6.35;2.03;;;;;;;29.79;35.71;96521.50;5068885;28;20127;-76
2023/10/20 08:01:47;;;;;;;8.23;2.40;;;;;;;30.43;34.55;96502.00;5069081;28;20111;-75
2023/10/20 08:04:13;;;;;;;12.50;2.70;;;;;;;30.48;34.18;96504.88;5069477;28;20465;-76
2023/10/20 08:06:41;;;;;;;8.05;2.15;;;;;;;30.62;34.13;96522.84;5070447;28;20032;-75
2023/10/20 08:09:09;;;;;;;12.68;3.33;;;;;;;30.68;33.85;96501.66;5069172;28;20142;-76
2023/10/20 08:11:42;;;;;;;11.55;2.97;;;;;;;31.41;33.63;96509.09;5070613;28;20115;-76
2023/10/20 08:14:12;;;;;;;5.30;2.25;;;;;;;31.08;33.18;96501.63;5070552;28;20019;-76
2023/10/20 08:16:49;;;;;;;8.87;2.57;;;;;;;30.61;33.77;96507.34;5069357;28;20020;-75
2023/10/20 08:19:22;;;;;;;10.80;2.45;;;;;;;29.70;34.88;96514.69;5062319;28;20032;-76
2023/10/20 08:21:50;;;;;;;6.82;2.25;;;;;;;28.89;35.49;96509.84;5069178;28;20024;-75
2023/10/20 08:24:16;;;;;;;9.25;2.60;;;;;;;28.29;36.91;96515.34;5070431;28;20024;-76
2023/10/20 08:26:44;;;;;;;12.55;2.80;;;;;;;28.33;36.74;96500.03;5070239;28;20032;-75
2023/10/20 08:29:18;;;;;;;10.25;2.97;;;;;;;27.69;38.22;96524.44;5069063;28;20024;-75
2023/10/20 08:32:03;;;;;;;7.30;1.92;;;;;;;27.27;38.79;96515.09;5070355;28;20447;-75
2023/10/20 08:34:33;;;;;;;8.05;2.58;;;;;;;27.28;38.46;96517.63;5070390;28;20522;-75
2023/10/20 08:37:03;;;;;;;7.25;2.40;;;;;;;27.12;38.80;96537.41;5068738;28;20039;-74
2023/10/20 08:39:48;;;;;;;10.23;2.58;;;;;;;27.11;38.68;96530.22;5070458;28;20024;-74
2023/10/20 08:42:22;;;;;;;9.10;2.63;;;;;;;27.95;38.33;96522.28;5070192;28;20077;-74
2023/10/20 08:44:55;;;;;;;13.45;2.72;;;;;;;28.45;37.30;96520.22;5068821;28;20114;-73
2023/10/20 08:47:23;;;;;;;5.13;2.33;;;;;;;28.79;36.83;96526.97;5069083;28;20079;-74
2023/10/20 08:49:53;;;;;;;11.07;3.22;;;;;;;29.53;35.69;96531.91;5069970;28;20063;-75
2023/10/20 08:52:19;;;;;;;6.68;2.10;;;;;;;29.83;35.37;96539.28;5068680;28;20020;-74
2023/10/20 08:54:50;;;;;;;9.70;2.28;;;;;;;30.32;34.36;96532.38;5068669;28;20477;-74
2023/10/20 08:57:21;;;;;;;8.73;2.97;;;;;;;31.00;34.16;96529.66;5085522;28;20036;-75
2023/10/20 08:59:53;;;;;;;10.63;2.15;;;;;;;31.13;32.90;96515.53;5068326;28;20383;-75
2023/10/20 09:02:24;;;;;;;;;;;;;;;30.01;34.63;96520.69;5069124;28;20021;-75
2023/10/20 09:04:52;;;;;;;8.43;2.30;;;;;;;28.63;36.05;96519.31;5070046;28;20296;-74
2023/10/20 09:07:31;;;;;;;21.20;2.90;;;;;;;28.12;36.81;96519.75;5068648;28;20107;-75
2023/10/20 09:10:09;;;;;;;6.63;2.63;;;;;;;27.77;37.27;96532.41;5074005;28;20487;-75
2023/10/20 09:12:43;;;;;;;4.80;2.28;;;;;;;27.37;38.06;96530.03;5074065;28;20120;-75
2023/10/20 09:15:21;;;;;;;11.75;2.47;;;;;;;27.39;37.80;96541.63;5072569;28;20544;-74
2023/10/20 09:17:56;;;;;;;12.15;3.05;;;;;;;27.16;38.41;96548.78;5073805;28;20061;-73
2023/10/20 09:20:24;;;;;;;8.10;2.83;;;;;;;27.05;38.51;96544.00;5072273;28;20493;-73
2023/10/20 09:22:52;;;;;;;6.55;2.70;;;;;;;27.03;38.71;96559.88;5056337;28;20530;-74
2023/10/20 09:25:30;;;;;;;;;;;;;;;;;;;;;
2023/10/20 09:28:17;;;;;;;5.32;2.60;;;;;;;27.03;39.02;96562.63;5073754;28;20054;-74
2023/10/20 09:30:53;;;;;;;11.45;2.75;;;;;;;27.22;39.14;96567.97;5089062;28;20111;-74
2023/10/20 09:33:23;;;;;;;13.38;2.28;;;;;;;27.37;38.44;96549.25;5072129;28;20561;-74
2023/10/20 09:35:55;;;;;;;10.13;2.63;;;;;;;27.42;38.85;96559.56;5072199;28;20055;-74
2023/10/20 09:38:27;;;;;;;10.95;2.78;;;;;;;27.37;38.40;96563.00;5072021;28;20024;-74
2023/10/20 09:41:15;;;;;;;8.30;3.00;;;;;;;27.13;39.04;96555.59;5088848;28;20032;-74
2023/10/20 09:44:01;;;;;;;7.30;2.17;;;;;;;27.02;39.10;96550.78;5073455;28;20103;-74
2023/10/20 09:46:47;;;;;;;7.38;2.83;;;;;;;26.99;39.76;96555.88;5071942;28;20335;-74
2023/10/20 09:49:25;;;;;;;11.68;2.28;;;;;;;26.94;39.35;96548.31;5088440;28;20055;-74
2023/10/20 09:51:56;;;;;;;9.43;2.40;;;;;;;26.96;39.57;96545.34;5071940;28;20028;-75
2023/10/20 09:54:32;;;;;;;13.77;2.60;;;;;;;26.98;39.32;96546.78;5071864;28;20025;-74
2023/10/20 09:57:01;;;;;;;12.32;2.33;;;;;;;26.94;39.04;96540.09;5087814;28;20028;-75
2023/10/20 09:59:30;;;;;;;6.75;2.72;;;;;;;26.90;39.62;96536.09;5072745;28;20028;-75
2023/10/20 10:01:56;;;;;;;5.13;2.28;;;;;;;26.93;39.01;96541.13;5088779;28;20089;-75
2023/10/20 10:04:28;;;;;;;9.25;2.45;;;;;;;27.03;39.25;96541.50;5088295;28;20035;-75
2023/10/20 10:06:58;;;;;;;9.23;2.60;;;;;;;27.08;38.86;96538.91;5071854;28;20039;-74
2023/10/20 10:09:49;;;;;;;5.93;2.70;;;;;;;27.04;39.41;96537.66;5072684;28;20028;-75
2023/10/20 10:12:30;;;;;;;4.85;2.15;;;;;;;27.08;38.92;96527.94;5071157;28;20136;-73
2023/10/20 10:14:57;;;;;;;18.25;3.38;;;;;;;27.04;38.60;96520.38;5071846;28;20060;-74
2023/10/20 10:17:42;;;;;;;9.57;2.47;;;;;;;27.24;38.36;96524.63;5072697;28;20555;-74
2023/10/20 10:20:21;;;;;;;5.53;2.15;;;;;;;27.13;38.57;96519.88;5070191;28;20052;-74
2023/10/20 10:22:46;;;;;;;6.70;2.50;;;;;;;27.24;38.88;96521.03;5055014;28;20116;-75
2023/10/20 10:25:16;;;;;;;11.18;2.60;;;;;;;27.25;38.57;96515.34;5071698;28;20550;-74
2023/10/20 10:27:44;;;;;;;4.28;2.05;;;;;;;27.30;39.05;96514.66;5072841;28;20036;-75
2023/10/20 10:30:13;;;;;;;8.90;2.70;;;;;;;27.36;38.93;96509.09;5071395;28;20043;-76
2023/10/20 10:32:56;;;;;;;6.15;2.40;;;;;;;27.51;38.67;96506.03;5072142;28;20451;-75
2023/10/20 10:35:29;;;;;;;11.63;2.53;;;;;;;27.53;38.22;96503.06;5071005;28;20063;-75
2023/10/20 10:37:57;;;;;;;12.93;2.58;;;;;;;27.63;38.22;96501.47;5072580;28;20032;-76
2023/10/20 10:40:23;;;;;;;11.40;3.38;;;;;;;27.67;38.13;96499.09;5071040;28;20033;-74
2023/10/20 10:42:52;;;;;;;12.32;2.83;;;;;;;27.75;37.79;96494.16;5071076;28;20033;-76
2023/10/20 10:45:27;;;;;;;9.13;2.40;;;;;;;27.86;37.36;96492.56;5070874;28;20109;-75
2023/10/20 10:48:11;;;;;;;19.33;6.88;;;;;;;27.90;37.60;96488.28;5071567;28;20043;-75
2023/10/20 10:51:05;;;;;;;6.95;2.42;;;;;;;28.06;37.62;96486.84;5071152;28;20503;-75
2023/10/20 10:53:38;;;;;;;11.82;2.90;;;;;;;28.13;37.08;96482.94;5071913;28;20029;-76
2023/10/20 10:56:11;;;;;;;9.20;2.90;;;;;;;28.11;36.86;96479.59;5070930;28;20028;-76
2023/10/20 10:58:37;;;;;;;8.27;2.80;;;;;;;28.17;36.49;96477.84;5070617;28;20112;-76
2023/10/20 11:01:05;;;;;;;8.60;2.65;;;;;;;28.29;36.50;96470.47;5071956;28;20424;-75
2023/10/20 11:03:40;;;;;;;9.55;2.70;;;;;;;28.28;36.64;96475.13;5070487;28;20108;-77
2023/10/20 11:06:12;;;;;;;11.68;2.60;;;;;;;28.33;36.65;96472.50;5072149;28;20032;-78
2023/10/20 11:08:44;;;;;;;5.93;1.98;;;;;;;28.29;36.42;96465.81;5070346;28;20111;-76
2023/10/20 11:11:29;;;;;;;11.75;3.17;;;;;;;28.21;36.83;96471.63;5067746;28;20437;-76
2023/10/20 11:13:56;;;;;;;5.65;2.60;;;;;;;28.28;36.49;96472.38;5066838;28;20038;-74
2023/10/20 11:16:21;;;;;;;7.80;2.67;;;;;;;28.24;36.20;96484.91;5067553;28;20062;-74
2023/10/20 11:21:57;;;;;;;8.85;2.38;;;;;;;28.35;35.48;96470.38;5067924;28;20455;-73
2023/10/20 11:24:34;;;;;;;10.40;2.67;;;;;;;28.42;35.82;96481.31;5069029;28;20462;-71
2023/10/20 11:27:09;;;;;;;7.82;2.35;;;;;;;28.56;35.38;96476.44;5068607;28;20028;-74
2023/10/20 11:29:46;;;;;;;7.10;2.40;;;;;;;28.74;35.30;96479.16;5068499;28;20463;-73
2023/10/20 11:32:21;;;;;;;11.07;2.25;;;;;;;28.95;34.90;96476.72;5066480;28;20655;-74
2023/10/20 11:34:51;;;;;;;12.50;2.63;;;;;;;29.08;34.88;96475.66;5082561;28;20400;-74
2023/10/20 11:37:26;;;;;;;10.52;2.20;;;;;;;29.20;35.06;96471.00;5068539;28;20110;-74
2023/10/20 11:40:04;;;;;;;6.13;2.53;;;;;;;29.22;34.42;96462.50;5068246;28;20043;-74
2023/10/20 11:42:36;;;;;;;9.60;2.72;;;;;;;29.26;34.74;96472.00;5079586;28;20020;-74
2023/10/20 11:45:05;;;;;;;9.27;2.58;;;;;;;29.34;34.50;96474.41;5066843;28;20028;-74
2023/10/20 11:47:39;;;;;;;7.05;2.00;;;;;;;29.45;34.14;96468.91;5083633;28;20495;-74
2023/10/20 11:50:23;;;;;;;6.53;2.45;;;;;;;29.58;34.23;96471.41;5066758;28;20025;-75
2023/10/20 11:52:53;;;;;;;14.02;2.78;;;;;;;29.89;33.89;96466.63;5067907;28;20033;-74
2023/10/20 11:55:19;;;;;;;9.18;2.92;;;;;;;30.65;32.88;96471.78;5066943;28;20590;-75
2023/10/20 11:57:47;;;;;;;9.70;3.38;;;;;;;31.86;30.77;96468.34;5066785;28;20131;-74
2023/10/20 12:00:19;;;;;;;4.50;2.17;;;;;;;32.84;29.57;96466.53;5083338;28;20032;-74
2023/10/20 12:02:51;;;;;;;21.23;2.90;;;;;;;34.04;28.31;96452.00;5067798;28;20097;-73
2023/10/20 12:05:20;;;;;;;12.63;2.90;;;;;;;35.03;26.80;96451.81;5066704;28;20108;-74
2023/10/20 12:07:48;;;;;;;7.25;2.30;;;;;;;34.16;27.49;96439.59;5066567;28;20542;-75
2023/10/20 12:10:13;;;;;;;10.57;2.78;;;;;;;34.14;27.80;96446.53;5067724;28;20399;-75
2023/10/20 12:13:00;;;;;;;8.48;2.35;;;;;;;35.02;27.50;96453.75;5067792;28;20044;-75
2023/10/20 12:15:37;;;;;;;9.05;2.85;;;;;;;35.68;26.70;96440.75;5066514;28;20517;-75
2023/10/20 12:18:03;;;;;;;13.25;2.78;;;;;;;35.19;26.47;96448.78;5067640;28;20048;-75
2023/10/20 12:20:31;;;;;;;11.75;2.85;;;;;;;34.46;26.66;96430.53;5066085;28;20091;-74
2023/10/20 12:23:20;;;;;;;;;;;;;;;;;;;;;
2023/10/20 12:25:48;;;;;;;10.63;2.38;;;;;;;34.09;26.88;96449.22;5064244;28;20035;-74
2023/10/20 12:28:16;;;;;;;7.90;2.65;;;;;;;34.98;26.74;96455.41;5067316;28;20114;-74
2023/10/20 12:30:55;;;;;;;10.95;2.78;;;;;;;35.40;26.24;96455.22;5066190;28;20032;-74
2023/10/20 12:33:21;;;;;;;13.80;2.80;;;;;;;36.28;26.02;96450.06;5066112;28;20102;-74
2023/10/20 12:35:52;;;;;;;14.40;2.00;;;;;;;36.98;25.11;96464.81;5067560;28;20040;-74
2023/10/20 12:38:24;;;;;;;10.00;3.10;;;;;;;36.58;25.38;96461.09;5066240;28;20025;-75
2023/10/20 12:40:51;;;;;;;;;;;;;;;36.38;25.29;96463.97;5050195;28;20040;-74